Disclaimer

Please do not use the information listed here in-flight or in-navigation, as they are not provided to us by the airports but are provided by volunteers, so they might be outdated.

Search


Regions


Airport information page

Radio informations:
RADAR - 135.25 MHz
Clearance delivery - 132.95 MHz
Automatic Terminal Information Service (ATIS) - 120.9 MHz

Airport informations:
Latitude: 32° 05' 51.00" S
Longitude: 115° 52' 52.00" E
Elevation: 99 feet - 30 meters
Operating hours: N/A
Operating agency: Civil government, landing fees and diplomatic clearance may be required
Timezone: UTC+8
Fuel: N/A

Runway information:
06R/24L - 3773 x 59 feet< - >1150 x 18 meters
06L/24R - 4569 x 98 feet< - >1393 x 30 meters
12/30 - 3248 x 98 feet< - >990 x 30 meters

Recent METARs:
YPJT 141600Z AUTO 16005KT 9999 // NCD 17/13 Q1015 RF00.0/000.0
YPJT 141630Z AUTO 19005KT 9999 // NCD 17/13 Q1015 RF00.0/000.0
YPJT 141700Z AUTO 14001KT 9999 // NCD 16/13 Q1015 RF00.0/000.0

Airport on the map: